createdAt,value
2022-10-19T00:02:37.072Z,5.21
2022-10-19T00:05:22.850Z,5.04
2022-10-19T00:08:08.595Z,5.50
2022-10-19T00:10:54.415Z,4.59
2022-10-19T00:13:40.336Z,4.37
2022-10-19T00:16:26.174Z,4.95
2022-10-19T00:19:11.948Z,5.22
2022-10-19T00:21:57.734Z,5.28
2022-10-19T00:24:43.605Z,5.40
2022-10-19T00:27:29.390Z,5.52
2022-10-19T00:30:15.240Z,5.05
2022-10-19T00:33:01.125Z,5.16
2022-10-19T00:35:46.856Z,4.82
2022-10-19T00:38:32.752Z,4.54
2022-10-19T00:41:18.674Z,5.01
2022-10-19T00:44:04.544Z,4.83
2022-10-19T00:46:50.399Z,5.27
2022-10-19T00:49:36.182Z,5.03
2022-10-19T00:52:22.095Z,4.97
2022-10-19T00:55:07.797Z,4.68
2022-10-19T00:57:53.608Z,4.60
2022-10-19T01:00:39.409Z,4.43
2022-10-19T01:03:25.250Z,4.36
2022-10-19T01:06:11.031Z,4.81
2022-10-19T01:08:56.972Z,5.08
2022-10-19T01:11:42.861Z,5.48
2022-10-19T01:14:28.809Z,5.67
2022-10-19T01:17:14.706Z,5.73
2022-10-19T01:20:00.585Z,5.59
2022-10-19T01:22:46.757Z,5.85
2022-10-19T01:25:32.592Z,5.73
2022-10-19T01:28:18.492Z,4.99
2022-10-19T01:31:04.445Z,4.69
2022-10-19T01:33:50.289Z,4.63
2022-10-19T01:36:36.349Z,5.76
2022-10-19T01:39:22.263Z,5.37
2022-10-19T01:42:08.173Z,5.00
2022-10-19T01:44:54.213Z,4.99
2022-10-19T01:47:40.100Z,4.98
2022-10-19T01:50:25.902Z,4.55
2022-10-19T01:53:11.744Z,5.08
2022-10-19T01:55:57.655Z,4.89
2022-10-19T01:58:45.509Z,4.63
2022-10-19T02:01:31.431Z,5.09
2022-10-19T02:04:17.277Z,4.45
2022-10-19T02:07:03.118Z,4.96
2022-10-19T02:09:48.899Z,5.16
2022-10-19T02:12:34.998Z,4.61
2022-10-19T02:15:21.465Z,4.61
2022-10-19T02:18:07.491Z,3.76
2022-10-19T02:20:53.271Z,3.54
2022-10-19T02:23:39.248Z,3.57
2022-10-19T02:26:25.042Z,3.73
2022-10-19T02:29:10.920Z,3.55
2022-10-19T02:31:56.794Z,3.42
2022-10-19T02:34:42.625Z,3.24
2022-10-19T02:37:28.452Z,3.09
2022-10-19T02:40:14.220Z,3.26
2022-10-19T02:43:00.077Z,2.84
2022-10-19T02:45:48.160Z,2.97
2022-10-19T02:48:36.047Z,2.95
2022-10-19T02:51:21.935Z,3.22
2022-10-19T02:54:07.835Z,3.57
2022-10-19T02:56:53.615Z,3.43
2022-10-19T02:59:39.387Z,3.52
2022-10-19T03:02:25.310Z,3.67
2022-10-19T03:05:11.103Z,4.00
2022-10-19T03:07:57.087Z,4.37
2022-10-19T03:10:42.799Z,4.97
2022-10-19T03:13:28.766Z,4.67
2022-10-19T03:16:14.681Z,4.38
2022-10-19T03:19:00.655Z,4.61
2022-10-19T03:21:46.401Z,4.60
2022-10-19T03:24:32.302Z,4.71
2022-10-19T03:27:18.169Z,4.85
2022-10-19T03:30:04.016Z,4.96
2022-10-19T03:32:49.771Z,5.40
2022-10-19T03:35:35.652Z,4.99
2022-10-19T03:38:21.547Z,5.34
2022-10-19T03:41:07.231Z,5.27
2022-10-19T03:43:53.127Z,5.58
2022-10-19T03:46:38.985Z,5.27
2022-10-19T03:49:24.856Z,5.73
2022-10-19T03:52:10.882Z,5.77
2022-10-19T03:54:56.623Z,5.75
2022-10-19T03:57:42.443Z,5.45
2022-10-19T04:00:28.269Z,5.24
2022-10-19T04:03:14.112Z,5.29
2022-10-19T04:06:00.068Z,5.79
2022-10-19T04:08:45.788Z,5.41
2022-10-19T04:11:31.629Z,5.91
2022-10-19T04:14:45.767Z,6.35
2022-10-19T04:17:45.638Z,6.20
2022-10-19T04:20:34.008Z,6.52
2022-10-19T04:23:19.799Z,6.55
2022-10-19T04:26:05.720Z,6.18
2022-10-19T04:28:51.604Z,6.17
2022-10-19T04:31:37.677Z,5.97
2022-10-19T04:34:23.526Z,5.90
2022-10-19T04:37:09.353Z,6.06
2022-10-19T04:39:55.241Z,6.40
2022-10-19T04:42:41.175Z,6.25
2022-10-19T04:45:26.908Z,6.39
2022-10-19T04:48:15.027Z,6.50
2022-10-19T04:51:01.288Z,6.83
2022-10-19T04:53:46.912Z,7.07
2022-10-19T04:56:32.856Z,6.72
2022-10-19T04:59:20.696Z,6.80
2022-10-19T05:02:06.621Z,7.15
2022-10-19T05:04:52.559Z,7.26
2022-10-19T05:07:38.478Z,7.03
2022-10-19T05:10:24.357Z,6.51
2022-10-19T05:13:10.484Z,6.22
2022-10-19T05:15:56.226Z,6.03
2022-10-19T05:18:42.167Z,5.53
2022-10-19T05:21:27.946Z,6.14
2022-10-19T05:24:13.672Z,6.27
2022-10-19T05:26:59.543Z,6.71
2022-10-19T05:29:45.325Z,7.29
2022-10-19T05:32:31.227Z,6.99
2022-10-19T05:35:22.358Z,6.64
2022-10-19T05:38:08.643Z,5.53
2022-10-19T05:40:54.343Z,6.48
2022-10-19T05:43:40.237Z,5.79
2022-10-19T05:46:26.008Z,9.92
2022-10-19T05:49:11.831Z,10.61
2022-10-19T05:51:57.703Z,9.84
2022-10-19T05:54:43.455Z,9.62
2022-10-19T05:57:29.407Z,9.82
2022-10-19T06:00:15.304Z,8.66
2022-10-19T06:03:01.200Z,7.62
2022-10-19T06:05:47.039Z,7.10
2022-10-19T06:08:32.724Z,6.77
2022-10-19T06:11:18.681Z,8.24
2022-10-19T06:14:04.401Z,8.70
2022-10-19T06:16:50.169Z,8.54
2022-10-19T06:19:35.953Z,8.25
2022-10-19T06:22:21.646Z,7.84
2022-10-19T06:25:07.537Z,7.48
2022-10-19T06:27:53.379Z,7.70
2022-10-19T06:30:39.382Z,7.55
2022-10-19T06:33:25.185Z,7.54
2022-10-19T06:36:11.031Z,7.14
2022-10-19T06:38:56.888Z,7.37
2022-10-19T06:41:42.925Z,7.26
2022-10-19T06:44:28.629Z,7.64
2022-10-19T06:47:14.570Z,8.50
2022-10-19T06:50:00.407Z,8.61
2022-10-19T06:52:46.085Z,8.50
2022-10-19T06:55:31.830Z,9.61
2022-10-19T06:58:17.731Z,8.20
2022-10-19T07:01:03.764Z,7.04
2022-10-19T07:03:50.113Z,6.94
2022-10-19T07:06:35.832Z,6.89
2022-10-19T07:09:21.760Z,6.61
2022-10-19T07:12:07.612Z,6.70
2022-10-19T07:14:53.487Z,7.44
2022-10-19T07:17:39.455Z,6.64
2022-10-19T07:20:25.213Z,6.36
2022-10-19T07:23:11.226Z,6.44
2022-10-19T07:25:57.062Z,6.87
2022-10-19T07:28:44.853Z,7.00
2022-10-19T07:31:30.766Z,6.52
2022-10-19T07:34:16.606Z,6.56
2022-10-19T07:37:02.525Z,6.45
2022-10-19T07:39:48.368Z,6.17
2022-10-19T07:42:34.286Z,6.35
2022-10-19T07:45:20.317Z,5.94
2022-10-19T07:48:06.248Z,5.86
2022-10-19T07:50:52.044Z,10.53
2022-10-19T07:53:38.201Z,105.37
2022-10-19T07:56:24.151Z,33.31
2022-10-19T07:59:10.003Z,11.64
2022-10-19T08:01:55.973Z,9.02
2022-10-19T08:05:00.280Z,7.65
2022-10-19T08:07:47.821Z,6.58
2022-10-19T08:10:33.737Z,8.59
2022-10-19T08:13:19.664Z,8.51
2022-10-19T08:16:05.562Z,8.92
2022-10-19T08:18:51.547Z,10.84
2022-10-19T08:21:37.427Z,9.81
2022-10-19T08:24:23.545Z,9.52
2022-10-19T08:27:09.567Z,7.73
2022-10-19T08:29:55.384Z,6.89
2022-10-19T08:32:41.247Z,7.29
2022-10-19T08:35:27.183Z,8.66
2022-10-19T08:38:13.001Z,10.57
2022-10-19T08:40:58.949Z,10.89
2022-10-19T08:43:44.746Z,10.25
2022-10-19T08:46:30.725Z,10.07
2022-10-19T08:49:16.675Z,8.31
2022-10-19T08:52:02.434Z,7.36
2022-10-19T08:54:48.185Z,9.16
2022-10-19T08:57:34.201Z,8.99
2022-10-19T09:00:20.457Z,9.65
2022-10-19T09:03:06.438Z,10.29
2022-10-19T09:05:52.163Z,10.04
2022-10-19T09:08:38.051Z,10.44
2022-10-19T09:11:24.006Z,10.40
2022-10-19T09:14:09.807Z,10.57
2022-10-19T09:16:55.730Z,10.41
2022-10-19T09:19:41.658Z,9.86
2022-10-19T09:22:27.439Z,10.23
2022-10-19T09:25:13.435Z,25.17
2022-10-19T09:27:59.315Z,26.47
2022-10-19T09:30:45.250Z,10.60
2022-10-19T09:33:31.106Z,11.43
2022-10-19T09:36:22.636Z,11.57
2022-10-19T09:39:13.797Z,12.29
2022-10-19T09:41:59.718Z,12.37
2022-10-19T09:44:47.629Z,11.59
2022-10-19T09:47:33.903Z,12.00
2022-10-19T09:50:22.000Z,12.61
2022-10-19T09:53:07.923Z,13.13
2022-10-19T09:55:53.859Z,13.70
2022-10-19T09:58:39.878Z,13.38
2022-10-19T10:01:29.615Z,13.21
2022-10-19T10:04:19.438Z,14.37
2022-10-19T10:07:05.203Z,13.97
2022-10-19T10:09:51.190Z,14.25
2022-10-19T10:12:37.238Z,13.64
2022-10-19T10:15:23.010Z,13.10
2022-10-19T10:18:08.776Z,11.86
2022-10-19T10:20:54.713Z,12.69
2022-10-19T10:23:40.690Z,13.52
2022-10-19T10:26:26.925Z,14.06
2022-10-19T10:29:12.900Z,14.70
2022-10-19T10:31:58.839Z,14.79
2022-10-19T10:34:51.820Z,13.94
2022-10-19T10:37:38.901Z,14.20
2022-10-19T10:40:26.812Z,13.70
2022-10-19T10:43:12.657Z,13.69
2022-10-19T10:45:58.633Z,13.48
2022-10-19T10:48:44.493Z,14.82
2022-10-19T10:51:30.333Z,15.54
2022-10-19T10:54:16.431Z,15.85
2022-10-19T10:57:05.600Z,16.11
2022-10-19T10:59:52.779Z,16.02
2022-10-19T11:02:38.653Z,16.19
2022-10-19T11:05:26.347Z,17.55
2022-10-19T11:08:12.303Z,16.19
2022-10-19T11:10:58.416Z,16.73
2022-10-19T11:13:44.270Z,16.33
2022-10-19T11:16:30.126Z,15.28
2022-10-19T11:19:16.530Z,14.63
2022-10-19T11:22:02.392Z,13.49
2022-10-19T11:24:48.773Z,13.22
2022-10-19T11:27:35.243Z,13.55
2022-10-19T11:30:21.279Z,13.91
2022-10-19T11:33:07.326Z,13.29
2022-10-19T11:35:55.246Z,12.88
2022-10-19T11:38:41.068Z,15.96
2022-10-19T11:41:26.998Z,17.21
2022-10-19T11:44:14.935Z,18.43
2022-10-19T11:47:00.874Z,18.86
2022-10-19T11:49:46.829Z,19.37
2022-10-19T11:52:33.042Z,20.24
2022-10-19T11:55:19.172Z,19.40
2022-10-19T11:58:05.091Z,18.92
2022-10-19T12:00:50.842Z,20.25
2022-10-19T12:03:36.621Z,18.37
2022-10-19T12:06:22.569Z,17.54
2022-10-19T12:09:08.425Z,16.47
2022-10-19T12:11:54.443Z,14.45
2022-10-19T12:14:40.231Z,15.18
2022-10-19T12:17:26.208Z,15.66
2022-10-19T12:20:14.886Z,15.24
2022-10-19T12:23:03.422Z,14.54
2022-10-19T12:25:49.187Z,15.38
2022-10-19T12:28:35.116Z,17.32
2022-10-19T12:31:20.964Z,22.00
2022-10-19T12:34:06.758Z,16.66
2022-10-19T12:36:52.705Z,17.61
2022-10-19T12:39:38.493Z,13.90
2022-10-19T12:42:24.367Z,13.19
2022-10-19T12:45:10.212Z,13.99
2022-10-19T12:47:58.099Z,13.04
2022-10-19T12:50:43.938Z,11.44
2022-10-19T12:53:29.826Z,11.42
2022-10-19T12:56:15.679Z,12.90
2022-10-19T12:59:01.782Z,13.52
2022-10-19T13:01:47.813Z,14.19
2022-10-19T13:04:33.964Z,14.23
2022-10-19T13:07:20.284Z,15.99
2022-10-19T13:10:06.048Z,16.73
2022-10-19T13:12:52.044Z,17.12
2022-10-19T13:15:37.953Z,17.98
2022-10-19T13:18:23.873Z,17.80
2022-10-19T13:21:10.135Z,17.55
2022-10-19T13:23:56.237Z,17.71
2022-10-19T13:26:42.325Z,18.34
2022-10-19T13:29:28.312Z,19.43
2022-10-19T13:32:14.195Z,19.10
2022-10-19T13:35:00.197Z,20.02
2022-10-19T13:37:46.071Z,20.07
2022-10-19T13:40:32.007Z,20.13
2022-10-19T13:43:17.883Z,19.73
2022-10-19T13:46:03.621Z,19.31
2022-10-19T13:48:49.539Z,19.40
2022-10-19T13:51:35.489Z,19.19
2022-10-19T13:54:21.461Z,21.25
2022-10-19T13:57:07.440Z,18.00
2022-10-19T13:59:53.349Z,18.38
2022-10-19T14:02:39.184Z,18.89
2022-10-19T14:05:25.114Z,19.72
2022-10-19T14:08:10.966Z,18.71
2022-10-19T14:11:00.996Z,18.89
2022-10-19T14:13:47.548Z,18.38
2022-10-19T14:16:33.237Z,18.48
2022-10-19T14:19:19.062Z,18.32
2022-10-19T14:22:05.008Z,17.57
2022-10-19T14:24:50.831Z,17.37
2022-10-19T14:27:36.948Z,17.41
2022-10-19T14:30:23.230Z,17.18
2022-10-19T14:33:08.884Z,16.18
2022-10-19T14:35:54.671Z,15.10
2022-10-19T14:38:40.538Z,15.15
2022-10-19T14:41:26.522Z,15.71
2022-10-19T14:44:12.468Z,15.46
2022-10-19T14:46:58.330Z,15.99
2022-10-19T14:49:44.241Z,18.44
2022-10-19T14:52:30.224Z,14.54
2022-10-19T14:55:17.857Z,14.22
2022-10-19T14:58:03.983Z,14.52
2022-10-19T15:00:49.869Z,14.05
2022-10-19T15:03:38.110Z,14.66
2022-10-19T15:06:27.397Z,14.92
2022-10-19T15:09:24.489Z,14.52
2022-10-19T15:12:19.312Z,13.60
2022-10-19T15:15:05.186Z,12.81
2022-10-19T15:17:51.073Z,13.57
2022-10-19T15:20:44.245Z,15.21
2022-10-19T15:23:35.086Z,18.87
2022-10-19T15:26:22.901Z,21.23
2022-10-19T15:29:08.665Z,22.74
2022-10-19T15:31:54.735Z,23.09
2022-10-19T15:34:40.483Z,23.27
2022-10-19T15:40:17.440Z,22.15
2022-10-19T15:43:03.335Z,22.18
2022-10-19T15:45:49.125Z,21.98
2022-10-19T15:48:35.055Z,20.45
2022-10-19T15:51:21.886Z,17.79
2022-10-19T15:54:07.763Z,15.68
2022-10-19T15:56:53.735Z,15.84
2022-10-19T15:59:39.797Z,17.32
2022-10-19T16:02:25.652Z,18.03
2022-10-19T16:05:11.700Z,18.32
2022-10-19T16:07:57.860Z,17.75
2022-10-19T16:10:43.651Z,18.28
2022-10-19T16:13:29.485Z,17.95
2022-10-19T16:16:15.290Z,17.85
2022-10-19T16:19:01.149Z,17.48
2022-10-19T16:21:50.249Z,16.61
2022-10-19T16:24:36.504Z,17.03
2022-10-19T16:27:22.375Z,16.99
2022-10-19T16:30:08.276Z,17.25
2022-10-19T16:32:54.217Z,17.00
2022-10-19T16:35:40.077Z,17.02
2022-10-19T16:38:25.898Z,17.87
2022-10-19T16:41:11.739Z,19.37
2022-10-19T16:43:57.642Z,20.75
2022-10-19T16:46:43.439Z,19.82
2022-10-19T16:49:29.497Z,20.17
2022-10-19T16:52:15.309Z,19.99
2022-10-19T16:55:01.225Z,20.67
2022-10-19T16:57:47.138Z,19.87
2022-10-19T17:00:33.165Z,21.38
2022-10-19T17:03:18.855Z,21.67
2022-10-19T17:06:04.560Z,21.59
2022-10-19T17:09:23.603Z,21.45
2022-10-19T17:11:56.545Z,21.09
2022-10-19T17:14:42.462Z,21.71
2022-10-19T17:17:28.301Z,21.22
2022-10-19T17:20:14.449Z,20.46
2022-10-19T17:23:00.361Z,19.95
2022-10-19T17:25:48.107Z,20.45
2022-10-19T17:28:34.001Z,19.45
2022-10-19T17:31:19.919Z,19.87
2022-10-19T17:34:05.881Z,19.67
2022-10-19T17:36:51.768Z,19.88
2022-10-19T17:39:37.609Z,20.25
2022-10-19T17:42:25.469Z,20.80
2022-10-19T17:45:11.484Z,20.57
2022-10-19T17:47:57.297Z,21.47
2022-10-19T17:50:43.230Z,21.82
2022-10-19T17:53:29.251Z,21.28
2022-10-19T17:56:15.098Z,22.00
2022-10-19T17:59:01.090Z,21.77
2022-10-19T18:01:46.925Z,21.02
2022-10-19T18:04:33.132Z,21.01
2022-10-19T18:07:19.109Z,21.31
2022-10-19T18:10:06.952Z,21.33
2022-10-19T18:12:52.965Z,21.58
2022-10-19T18:15:38.879Z,21.42
2022-10-19T18:18:24.786Z,22.44
2022-10-19T18:21:10.741Z,21.88
2022-10-19T18:23:56.793Z,22.76
2022-10-19T18:26:42.739Z,23.04
2022-10-19T18:29:28.580Z,23.92
2022-10-19T18:32:14.372Z,24.07
2022-10-19T18:35:00.270Z,24.16
2022-10-19T18:37:46.149Z,24.01
2022-10-19T18:40:32.035Z,23.97
2022-10-19T18:43:17.877Z,24.72
2022-10-19T18:46:03.703Z,24.78
2022-10-19T18:48:49.518Z,24.73
2022-10-19T18:51:35.446Z,24.89
2022-10-19T18:54:21.254Z,23.80
2022-10-19T18:57:07.203Z,25.24
2022-10-19T18:59:55.169Z,24.80
2022-10-19T19:02:46.771Z,25.18
2022-10-19T19:05:33.124Z,24.56
2022-10-19T19:08:18.971Z,24.42
2022-10-19T19:11:04.863Z,24.39
2022-10-19T19:13:50.790Z,24.29
2022-10-19T19:16:36.741Z,23.39
2022-10-19T19:19:22.530Z,23.93
2022-10-19T19:22:08.841Z,24.30
2022-10-19T19:24:54.951Z,23.90
2022-10-19T19:27:40.802Z,24.96
2022-10-19T19:30:26.809Z,24.25
2022-10-19T19:33:14.659Z,26.75
2022-10-19T19:36:00.548Z,26.48
2022-10-19T19:38:46.460Z,27.10
2022-10-19T19:41:32.259Z,26.39
2022-10-19T19:44:18.162Z,26.51
2022-10-19T19:47:04.137Z,26.66
2022-10-19T19:49:49.999Z,26.25
2022-10-19T19:52:40.243Z,25.35
2022-10-19T19:55:26.506Z,27.01
2022-10-19T19:58:12.476Z,26.76
2022-10-19T20:00:58.286Z,27.14
2022-10-19T20:03:44.192Z,25.97
2022-10-19T20:06:29.981Z,25.21
2022-10-19T20:09:15.856Z,25.59
2022-10-19T20:12:01.735Z,25.34
2022-10-19T20:14:47.766Z,27.21
2022-10-19T20:17:33.834Z,25.89
2022-10-19T20:20:19.904Z,26.23
2022-10-19T20:23:05.738Z,25.62
2022-10-19T20:25:51.663Z,27.33
2022-10-19T20:28:37.480Z,26.78
2022-10-19T20:31:23.287Z,27.95
2022-10-19T20:34:09.332Z,27.27
2022-10-19T20:36:55.174Z,26.84
2022-10-19T20:39:41.115Z,27.90
2022-10-19T20:42:26.922Z,27.44
2022-10-19T20:45:12.808Z,25.13
2022-10-19T20:47:58.703Z,27.49
2022-10-19T20:50:44.659Z,27.49
2022-10-19T20:53:30.478Z,28.37
2022-10-19T20:56:16.401Z,26.96
2022-10-19T21:01:49.218Z,28.17
2022-10-19T21:04:35.165Z,26.90
2022-10-19T21:07:21.182Z,28.49
2022-10-19T21:10:06.991Z,28.08
2022-10-19T21:12:52.871Z,26.08
2022-10-19T21:15:38.653Z,26.55
2022-10-19T21:18:24.583Z,26.10
2022-10-19T21:21:10.440Z,26.14
2022-10-19T21:23:56.399Z,26.80
2022-10-19T21:26:42.161Z,26.00
2022-10-19T21:29:28.009Z,24.86
2022-10-19T21:32:13.978Z,24.91
2022-10-19T21:34:59.811Z,25.17
2022-10-19T21:37:45.772Z,25.57
2022-10-19T21:40:31.573Z,24.73
2022-10-19T21:43:17.295Z,24.37
2022-10-19T21:46:03.141Z,25.00
2022-10-19T21:48:48.975Z,25.14
2022-10-19T21:51:34.799Z,22.99
2022-10-19T21:54:20.628Z,24.36
2022-10-19T21:57:06.575Z,26.41
2022-10-19T21:59:52.538Z,25.73
2022-10-19T22:02:38.358Z,24.33
2022-10-19T22:05:24.171Z,24.07
2022-10-19T22:08:12.014Z,25.67
2022-10-19T22:10:57.804Z,24.78
2022-10-19T22:13:43.794Z,24.89
2022-10-19T22:16:29.594Z,25.09
2022-10-19T22:19:15.355Z,25.48
2022-10-19T22:22:01.295Z,26.35
2022-10-19T22:24:47.011Z,26.49
2022-10-19T22:27:32.895Z,26.57
2022-10-19T22:30:18.965Z,26.72
2022-10-19T22:33:04.782Z,27.63
2022-10-19T22:35:50.637Z,28.48
2022-10-19T22:38:36.472Z,28.01
2022-10-19T22:41:22.414Z,26.80
2022-10-19T22:44:08.470Z,25.92
2022-10-19T22:46:54.259Z,26.31
2022-10-19T22:49:40.167Z,25.77
2022-10-19T22:52:26.025Z,26.77
2022-10-19T22:55:11.829Z,26.30
2022-10-19T22:57:57.791Z,25.33
2022-10-19T23:00:43.783Z,26.20
2022-10-19T23:03:31.565Z,26.85
2022-10-19T23:06:17.510Z,25.97
2022-10-19T23:09:03.419Z,25.51
2022-10-19T23:11:49.283Z,26.55
2022-10-19T23:14:35.197Z,23.93
2022-10-19T23:17:23.035Z,24.27
2022-10-19T23:20:08.920Z,24.83
2022-10-19T23:22:54.880Z,24.20
2022-10-19T23:25:40.570Z,24.11
2022-10-19T23:28:26.468Z,21.93
2022-10-19T23:31:12.241Z,22.17
2022-10-19T23:33:58.191Z,23.00
2022-10-19T23:36:44.100Z,22.53
2022-10-19T23:39:29.836Z,23.66
2022-10-19T23:42:16.888Z,24.63
2022-10-19T23:45:03.069Z,25.11
2022-10-19T23:47:48.819Z,25.36
2022-10-19T23:50:34.793Z,25.84
2022-10-19T23:53:21.726Z,24.47
2022-10-19T23:56:07.492Z,23.98
2022-10-19T23:58:53.331Z,23.72
